createdAt,value
2023-06-13T00:02:17.445Z,5.63
2023-06-13T00:04:47.013Z,6.20
2023-06-13T00:07:15.561Z,6.43
2023-06-13T00:09:43.997Z,5.50
2023-06-13T00:12:12.604Z,5.87
2023-06-13T00:14:40.972Z,5.50
2023-06-13T00:17:12.386Z,5.90
2023-06-13T00:19:40.816Z,6.23
2023-06-13T00:22:11.210Z,6.50
2023-06-13T00:24:39.580Z,6.50
2023-06-13T00:27:08.834Z,5.83
2023-06-13T00:29:37.212Z,6.10
2023-06-13T00:32:06.374Z,6.30
2023-06-13T00:34:36.298Z,6.30
2023-06-13T00:37:04.868Z,5.87
2023-06-13T00:39:35.006Z,5.40
2023-06-13T00:42:03.656Z,5.30
2023-06-13T00:44:32.754Z,5.50
2023-06-13T00:47:03.523Z,6.20
2023-06-13T00:49:32.373Z,5.17
2023-06-13T00:52:06.870Z,6.00
2023-06-13T00:54:38.136Z,6.20
2023-06-13T00:57:08.555Z,5.80
2023-06-13T00:59:37.510Z,5.50
2023-06-13T01:02:06.893Z,5.17
2023-06-13T01:04:36.527Z,5.10
2023-06-13T01:07:12.191Z,5.53
2023-06-13T01:09:43.497Z,5.50
2023-06-13T01:12:22.746Z,6.40
2023-06-13T01:15:00.363Z,6.30
2023-06-13T01:17:37.042Z,5.07
2023-06-13T01:20:12.732Z,5.17
2023-06-13T01:22:48.368Z,5.37
2023-06-13T01:25:30.428Z,5.83
2023-06-13T01:28:01.008Z,6.00
2023-06-13T01:30:29.861Z,5.77
2023-06-13T01:32:58.746Z,6.00
2023-06-13T01:35:30.429Z,5.80
2023-06-13T01:37:59.233Z,5.83
2023-06-13T01:40:28.020Z,6.43
2023-06-13T01:42:56.392Z,4.93
2023-06-13T01:45:27.029Z,6.03
2023-06-13T01:48:05.585Z,5.70
2023-06-13T01:50:47.906Z,5.83
2023-06-13T01:53:27.212Z,5.63
2023-06-13T01:56:01.597Z,5.53
2023-06-13T01:58:36.849Z,5.37
2023-06-13T02:01:09.756Z,5.40
2023-06-13T02:03:39.295Z,5.40
2023-06-13T02:06:07.917Z,5.17
2023-06-13T02:08:36.835Z,6.20
2023-06-13T02:11:05.462Z,5.07
2023-06-13T02:13:33.861Z,5.53
2023-06-13T02:16:02.231Z,5.40
2023-06-13T02:18:32.399Z,5.37
2023-06-13T02:21:01.404Z,5.60
2023-06-13T02:23:29.809Z,5.87
2023-06-13T02:25:58.220Z,5.60
2023-06-13T02:28:26.692Z,5.43
2023-06-13T02:30:55.823Z,5.63
2023-06-13T02:33:24.293Z,5.57
2023-06-13T02:35:54.277Z,5.00
2023-06-13T02:38:22.695Z,5.80
2023-06-13T02:40:53.797Z,5.47
2023-06-13T02:43:22.318Z,5.10
2023-06-13T02:45:51.175Z,6.03
2023-06-13T02:48:21.675Z,5.10
2023-06-13T02:50:51.586Z,5.50
2023-06-13T02:53:21.383Z,5.13
2023-06-13T02:55:50.084Z,6.00
2023-06-13T02:58:18.579Z,5.17
2023-06-13T03:00:47.274Z,6.00
2023-06-13T03:03:18.083Z,5.03
2023-06-13T03:05:48.698Z,5.70
2023-06-13T03:08:20.352Z,5.90
2023-06-13T03:10:50.579Z,5.83
2023-06-13T03:13:23.385Z,5.37
2023-06-13T03:15:55.518Z,5.20
2023-06-13T03:18:25.765Z,6.77
2023-06-13T03:20:56.116Z,6.03
2023-06-13T03:23:27.109Z,5.63
2023-06-13T03:25:56.055Z,6.27
2023-06-13T03:28:25.165Z,5.47
2023-06-13T03:30:56.134Z,5.53
2023-06-13T03:33:25.158Z,5.60
2023-06-13T03:35:57.909Z,5.43
2023-06-13T03:38:29.854Z,5.80
2023-06-13T03:40:58.776Z,5.63
2023-06-13T03:43:27.786Z,5.53
2023-06-13T03:45:56.785Z,5.60
2023-06-13T03:48:25.264Z,5.90
2023-06-13T03:50:53.827Z,6.67
2023-06-13T03:53:23.609Z,5.33
2023-06-13T03:55:53.415Z,5.70
2023-06-13T03:58:26.256Z,5.80
2023-06-13T04:00:56.030Z,5.23
2023-06-13T04:03:24.584Z,4.70
2023-06-13T04:05:53.179Z,5.30
2023-06-13T04:08:21.681Z,6.27
2023-06-13T04:10:50.172Z,5.37
2023-06-13T04:13:19.946Z,5.90
2023-06-13T04:15:48.682Z,5.73
2023-06-13T04:18:18.240Z,5.67
2023-06-13T04:20:47.268Z,5.10
2023-06-13T04:23:15.868Z,5.20
2023-06-13T04:25:44.605Z,5.00
2023-06-13T04:28:14.263Z,5.53
2023-06-13T04:30:47.923Z,5.73
2023-06-13T04:33:18.523Z,5.27
2023-06-13T04:35:49.351Z,5.50
2023-06-13T04:38:21.400Z,5.67
2023-06-13T04:40:50.302Z,5.20
2023-06-13T04:43:18.753Z,5.43
2023-06-13T04:45:50.043Z,5.77
2023-06-13T04:48:18.559Z,5.40
2023-06-13T04:50:47.501Z,5.27
2023-06-13T04:53:17.242Z,4.57
2023-06-13T04:55:45.690Z,4.97
2023-06-13T04:58:14.248Z,5.50
2023-06-13T05:00:42.681Z,5.57
2023-06-13T05:03:17.888Z,5.47
2023-06-13T05:05:47.135Z,5.33
2023-06-13T05:08:20.705Z,5.57
2023-06-13T05:10:49.688Z,5.60
2023-06-13T05:13:18.259Z,5.07
2023-06-13T05:15:48.156Z,5.30
2023-06-13T05:18:18.623Z,4.90
2023-06-13T05:20:47.385Z,6.60
2023-06-13T05:23:16.696Z,5.10
2023-06-13T05:25:45.185Z,4.50
2023-06-13T05:28:13.651Z,5.67
2023-06-13T05:30:42.406Z,5.80
2023-06-13T05:33:11.241Z,5.90
2023-06-13T05:35:56.088Z,5.00
2023-06-13T05:38:25.974Z,5.40
2023-06-13T05:40:54.378Z,4.90
2023-06-13T05:43:23.083Z,5.13
2023-06-13T05:45:51.960Z,5.10
2023-06-13T05:48:20.403Z,5.20
2023-06-13T05:50:50.371Z,4.40
2023-06-13T05:53:18.806Z,5.17
2023-06-13T05:55:47.201Z,4.90
2023-06-13T05:58:15.706Z,5.10
2023-06-13T06:00:44.075Z,5.40
2023-06-13T06:03:12.557Z,5.20
2023-06-13T06:05:42.329Z,5.20
2023-06-13T06:08:13.114Z,4.77
2023-06-13T06:10:41.926Z,4.40
2023-06-13T06:13:10.400Z,4.80
2023-06-13T06:15:38.837Z,4.57
2023-06-13T06:18:07.390Z,4.40
2023-06-13T06:20:35.825Z,4.97
2023-06-13T06:23:04.336Z,4.90
2023-06-13T06:25:35.028Z,5.00
2023-06-13T06:28:03.747Z,4.37
2023-06-13T06:30:32.112Z,4.50
2023-06-13T06:33:00.591Z,4.80
2023-06-13T06:35:29.030Z,4.93
2023-06-13T06:37:57.457Z,4.80
2023-06-13T06:40:25.889Z,4.50
2023-06-13T06:42:55.689Z,4.60
2023-06-13T06:45:30.026Z,5.03
2023-06-13T06:47:59.079Z,5.00
2023-06-13T06:50:27.611Z,4.40
2023-06-13T06:52:56.070Z,4.60
2023-06-13T06:55:24.557Z,4.90
2023-06-13T06:57:54.501Z,4.80
2023-06-13T07:00:25.249Z,5.20
2023-06-13T07:02:55.959Z,5.10
2023-06-13T07:05:24.755Z,5.03
2023-06-13T07:07:53.190Z,4.47
2023-06-13T07:10:21.651Z,4.90
2023-06-13T07:12:50.087Z,4.80
2023-06-13T07:15:18.568Z,4.47
2023-06-13T07:17:48.367Z,4.70
2023-06-13T07:20:17.232Z,4.70
2023-06-13T07:22:45.767Z,4.77
2023-06-13T07:25:14.277Z,4.93
2023-06-13T07:27:42.681Z,4.60
2023-06-13T07:30:12.044Z,4.50
2023-06-13T07:32:41.309Z,4.20
2023-06-13T07:35:11.343Z,4.23
2023-06-13T07:37:39.747Z,4.10
2023-06-13T07:40:10.315Z,4.17
2023-06-13T07:42:38.719Z,3.83
2023-06-13T07:45:08.528Z,3.83
2023-06-13T07:47:37.459Z,3.90
2023-06-13T07:50:06.756Z,3.60
2023-06-13T07:52:36.699Z,3.77
2023-06-13T07:55:06.229Z,3.70
2023-06-13T07:57:53.664Z,4.20
2023-06-13T08:00:23.140Z,3.63
2023-06-13T08:02:51.777Z,4.00
2023-06-13T08:05:20.980Z,4.50
2023-06-13T08:07:52.009Z,4.40
2023-06-13T08:10:20.568Z,4.40
2023-06-13T08:12:49.451Z,4.20
2023-06-13T08:15:18.057Z,4.07
2023-06-13T08:17:46.639Z,3.87
2023-06-13T08:20:15.333Z,4.20
2023-06-13T08:22:43.977Z,3.93
2023-06-13T08:25:13.765Z,3.87
2023-06-13T08:27:43.082Z,4.00
2023-06-13T08:30:13.351Z,4.03
2023-06-13T08:32:42.743Z,4.17
2023-06-13T08:35:11.806Z,4.60
2023-06-13T08:37:41.147Z,4.37
2023-06-13T08:40:12.152Z,4.57
2023-06-13T08:42:42.373Z,3.43
2023-06-13T08:45:11.871Z,4.53
2023-06-13T08:47:47.183Z,4.50
2023-06-13T08:50:19.917Z,4.43
2023-06-13T08:52:50.051Z,4.67
2023-06-13T08:57:57.379Z,4.40
2023-06-13T09:00:26.210Z,4.40
2023-06-13T09:02:57.405Z,4.40
2023-06-13T09:05:29.600Z,4.00
2023-06-13T09:08:17.968Z,4.00
2023-06-13T09:10:49.108Z,4.33
2023-06-13T09:13:19.657Z,3.97
2023-06-13T09:15:48.519Z,4.20
2023-06-13T09:18:17.961Z,4.03
2023-06-13T09:20:46.488Z,3.90
2023-06-13T09:23:18.098Z,3.90
2023-06-13T09:25:48.479Z,4.10
2023-06-13T09:28:35.145Z,3.90
2023-06-13T09:31:03.569Z,4.27
2023-06-13T09:33:32.012Z,3.93
2023-06-13T09:36:03.166Z,4.10
2023-06-13T09:38:37.096Z,4.20
2023-06-13T09:41:07.041Z,3.90
2023-06-13T09:43:39.336Z,3.80
2023-06-13T09:46:10.666Z,4.50
2023-06-13T09:48:39.140Z,4.50
2023-06-13T09:51:12.260Z,4.20
2023-06-13T09:53:41.303Z,3.70
2023-06-13T09:56:11.474Z,4.40
2023-06-13T09:58:43.031Z,4.23
2023-06-13T10:01:17.255Z,4.13
2023-06-13T10:03:46.417Z,4.93
2023-06-13T10:06:15.444Z,4.60
2023-06-13T10:08:44.031Z,4.10
2023-06-13T10:11:16.082Z,4.80
2023-06-13T10:13:55.480Z,4.40
2023-06-13T10:16:26.746Z,3.60
2023-06-13T10:18:56.276Z,4.20
2023-06-13T10:21:24.763Z,4.17
2023-06-13T10:23:53.955Z,4.20
2023-06-13T10:26:31.711Z,4.63
2023-06-13T10:29:46.721Z,4.17
2023-06-13T10:32:55.303Z,4.67
2023-06-13T10:35:54.890Z,3.63
2023-06-13T10:39:14.685Z,4.07
2023-06-13T10:42:21.915Z,4.80
2023-06-13T10:45:01.823Z,4.90
2023-06-13T10:47:31.344Z,4.40
2023-06-13T10:50:01.201Z,4.10
2023-06-13T10:52:32.109Z,4.77
2023-06-13T10:55:02.722Z,4.27
2023-06-13T10:57:49.910Z,4.07
2023-06-13T11:00:39.127Z,4.53
2023-06-13T11:03:09.672Z,4.30
2023-06-13T11:05:51.550Z,4.80
2023-06-13T11:08:23.809Z,5.17
2023-06-13T11:10:54.170Z,4.70
2023-06-13T11:13:24.551Z,4.50
2023-06-13T11:15:57.644Z,3.93
2023-06-13T11:18:33.696Z,4.43
2023-06-13T11:21:04.876Z,4.30
2023-06-13T11:23:46.452Z,4.07
2023-06-13T11:26:15.230Z,4.17
2023-06-13T11:28:43.687Z,4.70
2023-06-13T11:31:15.527Z,4.50
2023-06-13T11:33:48.294Z,4.40
2023-06-13T11:36:19.582Z,4.20
2023-06-13T11:38:57.258Z,4.43
2023-06-13T11:41:26.142Z,4.30
2023-06-13T11:43:55.685Z,4.23
2023-06-13T11:46:26.896Z,4.33
2023-06-13T11:48:59.080Z,4.53
2023-06-13T11:51:31.389Z,4.30
2023-06-13T11:54:02.757Z,3.80
2023-06-13T11:56:36.060Z,4.33
2023-06-13T11:59:17.650Z,4.40
2023-06-13T12:01:50.604Z,4.43
2023-06-13T12:04:19.634Z,4.10
2023-06-13T12:06:48.283Z,4.60
2023-06-13T12:09:17.902Z,4.30
2023-06-13T12:11:46.545Z,4.90
2023-06-13T12:14:19.938Z,4.60
2023-06-13T12:16:55.074Z,5.23
2023-06-13T12:19:24.923Z,4.70
2023-06-13T12:21:59.490Z,5.07
2023-06-13T12:24:28.893Z,4.97
2023-06-13T12:26:57.639Z,4.77
2023-06-13T12:29:29.057Z,4.57
2023-06-13T12:32:05.234Z,4.43
2023-06-13T12:34:36.002Z,4.13
2023-06-13T12:37:07.674Z,4.33
2023-06-13T12:39:36.886Z,4.40
2023-06-13T12:42:09.103Z,4.27
2023-06-13T12:44:38.325Z,4.40
2023-06-13T12:47:09.066Z,3.97
2023-06-13T12:49:38.897Z,4.67
2023-06-13T12:52:09.449Z,4.07
2023-06-13T12:54:38.344Z,4.20
2023-06-13T12:57:10.592Z,4.50
2023-06-13T12:59:42.335Z,4.03
2023-06-13T13:02:15.074Z,4.17
2023-06-13T13:04:45.115Z,4.27
2023-06-13T13:07:14.425Z,4.80
2023-06-13T13:09:46.094Z,4.50
2023-06-13T13:12:15.824Z,4.70
2023-06-13T13:14:44.558Z,4.40
2023-06-13T13:17:14.327Z,4.27
2023-06-13T13:19:43.028Z,4.90
2023-06-13T13:22:15.096Z,4.63
2023-06-13T13:24:43.503Z,5.00
2023-06-13T13:27:11.944Z,4.67
2023-06-13T13:29:41.495Z,4.27
2023-06-13T13:32:11.246Z,4.70
2023-06-13T13:34:41.204Z,4.90
2023-06-13T13:37:09.640Z,5.13
2023-06-13T13:39:38.048Z,4.63
2023-06-13T13:42:14.104Z,4.40
2023-06-13T13:44:50.319Z,4.60
2023-06-13T13:47:18.794Z,5.00
2023-06-13T13:49:48.642Z,4.67
2023-06-13T13:52:17.191Z,4.90
2023-06-13T13:54:45.656Z,4.43
2023-06-13T13:57:14.139Z,5.00
2023-06-13T13:59:42.535Z,4.90
2023-06-13T14:02:10.947Z,4.50
2023-06-13T14:04:39.454Z,4.40
2023-06-13T14:07:09.181Z,3.90
2023-06-13T14:09:38.012Z,4.70
2023-06-13T14:12:09.159Z,4.50
2023-06-13T14:14:37.638Z,5.00
2023-06-13T14:17:07.068Z,4.20
2023-06-13T14:19:36.558Z,4.47
2023-06-13T14:22:05.573Z,4.80
2023-06-13T14:24:35.779Z,4.50
2023-06-13T14:27:04.353Z,4.60
2023-06-13T14:29:32.677Z,5.10
2023-06-13T14:32:02.697Z,4.37
2023-06-13T14:34:31.195Z,4.47
2023-06-13T14:36:59.725Z,4.40
2023-06-13T14:39:28.115Z,4.70
2023-06-13T14:41:58.025Z,4.57
2023-06-13T14:44:26.398Z,4.37
2023-06-13T14:46:54.787Z,5.10
2023-06-13T14:49:23.114Z,4.57
2023-06-13T14:51:51.566Z,4.20
2023-06-13T14:54:19.973Z,4.97
2023-06-13T14:56:48.371Z,5.47
2023-06-13T14:59:18.083Z,4.23
2023-06-13T15:01:47.268Z,4.43
2023-06-13T15:04:15.702Z,5.00
2023-06-13T15:06:44.111Z,4.60
2023-06-13T15:09:13.572Z,4.80
2023-06-13T15:11:42.703Z,4.83
2023-06-13T15:14:11.536Z,5.23
2023-06-13T15:16:41.549Z,5.30
2023-06-13T15:19:09.910Z,4.93
2023-06-13T15:21:38.337Z,5.13
2023-06-13T15:24:07.325Z,4.43
2023-06-13T15:26:35.838Z,5.30
2023-06-13T15:29:04.205Z,4.13
2023-06-13T15:31:32.656Z,4.90
2023-06-13T15:34:02.464Z,4.23
2023-06-13T15:36:30.896Z,5.00
2023-06-13T15:38:59.356Z,4.07
2023-06-13T15:41:27.922Z,4.80
2023-06-13T15:43:56.300Z,4.33
2023-06-13T15:46:24.702Z,4.13
2023-06-13T15:48:53.120Z,4.93
2023-06-13T15:51:22.962Z,4.80
2023-06-13T15:53:51.381Z,4.50
2023-06-13T15:56:19.746Z,4.60
2023-06-13T15:58:48.126Z,4.70
2023-06-13T16:01:16.838Z,4.17
2023-06-13T16:03:45.393Z,5.30
2023-06-13T16:06:13.806Z,4.83
2023-06-13T16:08:43.613Z,4.87
2023-06-13T16:11:12.145Z,4.93
2023-06-13T16:13:41.427Z,4.47
2023-06-13T16:16:10.185Z,4.80
2023-06-13T16:18:39.341Z,4.10
2023-06-13T16:21:07.825Z,5.23
2023-06-13T16:23:37.784Z,4.70
2023-06-13T16:26:08.207Z,4.57
2023-06-13T16:28:36.696Z,4.70
2023-06-13T16:31:06.028Z,4.90
2023-06-13T16:33:35.491Z,4.80
2023-06-13T16:36:04.360Z,4.37
2023-06-13T16:38:32.863Z,5.20
2023-06-13T16:41:02.457Z,4.50
2023-06-13T16:43:35.809Z,4.67
2023-06-13T16:46:04.523Z,4.07
2023-06-13T16:48:33.032Z,5.33
2023-06-13T16:51:01.355Z,4.03
2023-06-13T16:53:30.674Z,3.83
2023-06-13T16:55:59.071Z,4.60
2023-06-13T16:58:27.485Z,5.13
2023-06-13T17:00:58.984Z,4.27
2023-06-13T17:03:29.284Z,5.23
2023-06-13T17:05:57.754Z,4.27
2023-06-13T17:08:26.717Z,4.30
2023-06-13T17:10:55.355Z,4.40
2023-06-13T17:13:24.414Z,3.90
2023-06-13T17:15:52.995Z,3.93
2023-06-13T17:18:22.823Z,4.17
2023-06-13T17:20:58.387Z,4.03
2023-06-13T17:23:27.356Z,4.70
2023-06-13T17:25:55.822Z,4.17
2023-06-13T17:28:24.724Z,3.60
2023-06-13T17:30:53.157Z,4.10
2023-06-13T17:33:26.895Z,4.10
2023-06-13T17:36:03.681Z,4.70
2023-06-13T17:38:32.464Z,4.20
2023-06-13T17:41:01.745Z,3.90
2023-06-13T17:43:30.162Z,4.47
2023-06-13T17:45:59.100Z,4.73
2023-06-13T17:48:28.842Z,4.20
2023-06-13T17:50:57.914Z,4.57
2023-06-13T17:53:26.320Z,5.17
2023-06-13T17:55:54.759Z,4.77
2023-06-13T17:58:23.406Z,4.90
2023-06-13T18:00:52.059Z,4.63
2023-06-13T18:03:20.489Z,4.70
2023-06-13T18:05:50.831Z,4.63
2023-06-13T18:08:19.332Z,6.17
2023-06-13T18:10:47.679Z,4.70
2023-06-13T18:13:16.113Z,5.30
2023-06-13T18:15:44.591Z,4.30
2023-06-13T18:18:13.107Z,4.57
2023-06-13T18:20:41.540Z,4.63
2023-06-13T18:23:11.630Z,4.20
2023-06-13T18:25:40.143Z,5.07
2023-06-13T18:28:08.594Z,5.17
2023-06-13T18:30:37.025Z,4.33
2023-06-13T18:33:05.839Z,5.57
2023-06-13T18:35:34.311Z,4.87
2023-06-13T18:38:02.741Z,4.43
2023-06-13T18:40:32.506Z,5.10
2023-06-13T18:43:01.490Z,6.60
2023-06-13T18:45:31.845Z,4.60
2023-06-13T18:48:01.413Z,4.60
2023-06-13T18:50:29.862Z,5.67
2023-06-13T18:53:04.626Z,4.93
2023-06-13T18:55:34.532Z,5.30
2023-06-13T18:58:03.332Z,4.70
2023-06-13T19:00:34.934Z,4.63
2023-06-13T19:03:07.342Z,4.57
2023-06-13T19:05:36.754Z,5.07
2023-06-13T19:08:06.239Z,4.93
2023-06-13T19:10:36.971Z,5.13
2023-06-13T19:13:05.547Z,5.60
2023-06-13T19:15:34.237Z,4.70
2023-06-13T19:18:05.581Z,4.73
2023-06-13T19:20:35.493Z,4.60
2023-06-13T19:23:03.808Z,5.37
2023-06-13T19:25:32.454Z,5.10
2023-06-13T19:28:18.046Z,5.90
2023-06-13T19:30:48.070Z,5.17
2023-06-13T19:33:17.191Z,5.40
2023-06-13T19:35:45.952Z,5.03
2023-06-13T19:38:18.209Z,5.40
2023-06-13T19:40:46.566Z,5.40
2023-06-13T19:43:16.398Z,5.40
2023-06-13T19:45:46.138Z,5.43
2023-06-13T19:48:14.715Z,5.60
2023-06-13T19:50:43.245Z,5.30
2023-06-13T19:53:11.611Z,5.30
2023-06-13T19:55:40.925Z,5.40
2023-06-13T19:58:09.797Z,5.40
2023-06-13T20:00:39.655Z,5.03
2023-06-13T20:03:08.111Z,5.30
2023-06-13T20:05:38.285Z,5.77
2023-06-13T20:08:07.714Z,5.73
2023-06-13T20:10:36.424Z,5.70
2023-06-13T20:13:05.011Z,5.70
2023-06-13T20:15:33.598Z,5.03
2023-06-13T20:18:04.759Z,6.10
2023-06-13T20:20:33.473Z,6.30
2023-06-13T20:23:01.833Z,5.60
2023-06-13T20:25:30.318Z,5.37
2023-06-13T20:27:58.707Z,6.07
2023-06-13T20:30:27.118Z,5.50
2023-06-13T20:32:56.079Z,6.07
2023-06-13T20:35:25.941Z,5.20
2023-06-13T20:37:54.308Z,5.60
2023-06-13T20:40:22.843Z,6.00
2023-06-13T20:42:52.597Z,5.73
2023-06-13T20:45:21.670Z,6.37
2023-06-13T20:47:57.262Z,6.17
2023-06-13T20:50:32.083Z,6.60
2023-06-13T20:53:00.871Z,6.13
2023-06-13T20:55:29.732Z,5.67
2023-06-13T20:57:58.082Z,6.33
2023-06-13T21:00:27.439Z,6.43
2023-06-13T21:02:58.019Z,8.50
2023-06-13T21:05:29.098Z,6.07
2023-06-13T21:07:59.798Z,6.10
2023-06-13T21:10:30.088Z,6.53
2023-06-13T21:12:58.724Z,6.10
2023-06-13T21:15:27.610Z,6.20
2023-06-13T21:17:56.521Z,5.60
2023-06-13T21:20:27.733Z,5.37
2023-06-13T21:22:56.483Z,6.47
2023-06-13T21:25:25.350Z,6.03
2023-06-13T21:27:53.877Z,6.23
2023-06-13T21:30:22.556Z,6.10
2023-06-13T21:32:51.551Z,5.90
2023-06-13T21:35:21.432Z,6.30
2023-06-13T21:37:52.172Z,5.93
2023-06-13T21:40:21.707Z,6.47
2023-06-13T21:42:50.179Z,6.90
2023-06-13T21:45:30.967Z,6.47
2023-06-13T21:48:00.756Z,6.07
2023-06-13T21:50:29.226Z,5.50
2023-06-13T21:52:59.315Z,7.13
2023-06-13T21:55:27.732Z,5.70
2023-06-13T21:57:56.338Z,6.20
2023-06-13T22:00:25.240Z,6.40
2023-06-13T22:02:54.319Z,6.00
2023-06-13T22:05:23.291Z,6.17
2023-06-13T22:07:52.075Z,6.10
2023-06-13T22:10:21.992Z,5.40
2023-06-13T22:12:51.276Z,6.07
2023-06-13T22:15:20.081Z,5.70
2023-06-13T22:17:53.244Z,6.20
2023-06-13T22:20:24.921Z,6.53
2023-06-13T22:22:55.079Z,6.13
2023-06-13T22:25:26.053Z,6.33
2023-06-13T22:27:55.591Z,6.10
2023-06-13T22:30:24.880Z,5.63
2023-06-13T22:32:55.202Z,6.33
2023-06-13T22:35:24.178Z,6.07
2023-06-13T22:37:53.301Z,5.53
2023-06-13T22:40:21.907Z,6.00
2023-06-13T22:42:51.711Z,6.37
2023-06-13T22:45:20.533Z,5.87
2023-06-13T22:47:52.583Z,6.83
2023-06-13T22:50:22.122Z,6.43
2023-06-13T22:52:51.917Z,6.03
2023-06-13T22:55:20.619Z,6.20
2023-06-13T22:57:48.985Z,6.10
2023-06-13T23:00:19.905Z,6.50
2023-06-13T23:02:49.352Z,5.90
2023-06-13T23:05:18.251Z,6.43
2023-06-13T23:07:47.292Z,6.40
2023-06-13T23:10:15.947Z,6.90
2023-06-13T23:12:44.669Z,6.93
2023-06-13T23:15:14.132Z,6.37
2023-06-13T23:17:43.984Z,5.57
2023-06-13T23:20:15.086Z,6.20
2023-06-13T23:22:44.523Z,7.07
2023-06-13T23:25:12.899Z,6.30
2023-06-13T23:27:42.447Z,6.60
2023-06-13T23:30:12.828Z,6.47
2023-06-13T23:32:43.268Z,6.20
2023-06-13T23:35:14.268Z,6.27
2023-06-13T23:37:45.604Z,6.30
2023-06-13T23:40:16.382Z,6.20
2023-06-13T23:42:45.237Z,6.67
2023-06-13T23:45:13.710Z,6.10
2023-06-13T23:47:42.770Z,6.17
2023-06-13T23:50:13.051Z,6.37
2023-06-13T23:52:41.583Z,5.40
2023-06-13T23:55:10.937Z,6.37
2023-06-13T23:57:40.377Z,6.57
